createdAt,value
2019-03-15T00:00:46.780Z,94304.19
2019-03-15T00:03:14.226Z,94307.56
2019-03-15T00:05:41.731Z,94298.79
2019-03-15T00:08:09.150Z,94305.26
2019-03-15T00:10:36.670Z,94315.08
2019-03-15T00:13:04.163Z,94312.57
2019-03-15T00:15:31.835Z,94298.25
2019-03-15T00:17:59.342Z,94295.74
2019-03-15T00:20:26.981Z,94299.18
2019-03-15T00:22:54.482Z,94296.35
2019-03-15T00:25:21.968Z,94308.25
2019-03-15T00:27:49.477Z,94299.19
2019-03-15T00:30:16.983Z,94304.23
2019-03-15T00:32:44.437Z,94302.77
2019-03-15T00:35:11.815Z,94309.05
2019-03-15T00:37:39.329Z,94306.55
2019-03-15T00:40:09.113Z,94308.73
2019-03-15T00:42:37.000Z,94301.56
2019-03-15T00:45:08.156Z,94311.77
2019-03-15T00:47:34.524Z,94304.06
2019-03-15T00:50:02.016Z,94299.39
2019-03-15T00:52:29.517Z,94296.22
2019-03-15T00:54:57.045Z,94285.70
2019-03-15T00:57:24.546Z,94284.47
2019-03-15T00:59:51.958Z,94285.15
2019-03-15T01:02:19.500Z,94280.26
2019-03-15T01:04:47.964Z,94283.74
2019-03-15T01:07:15.536Z,94274.95
2019-03-15T01:09:43.489Z,94279.05
2019-03-15T01:12:10.977Z,94280.03
2019-03-15T01:14:38.511Z,94274.18
2019-03-15T01:17:06.132Z,94263.17
2019-03-15T01:19:33.603Z,94265.12
2019-03-15T01:22:01.107Z,94276.59
2019-03-15T01:24:28.687Z,94272.50
2019-03-15T01:26:56.163Z,94275.52
2019-03-15T01:29:23.611Z,94275.83
2019-03-15T01:31:51.075Z,94269.86
2019-03-15T01:34:18.561Z,94262.79
2019-03-15T01:36:46.045Z,94263.70
2019-03-15T01:39:13.551Z,94269.87
2019-03-15T01:41:41.087Z,94263.32
2019-03-15T01:44:09.036Z,94263.81
2019-03-15T01:46:36.442Z,94257.73
2019-03-15T01:49:04.047Z,94258.45
2019-03-15T01:51:31.547Z,94249.29
2019-03-15T01:53:58.962Z,94253.86
2019-03-15T01:56:26.440Z,94252.64
2019-03-15T01:58:55.126Z,94248.33
2019-03-15T02:01:22.906Z,94249.58
2019-03-15T02:03:52.699Z,94246.96
2019-03-15T02:06:20.129Z,94242.55
2019-03-15T02:08:47.577Z,94234.72
2019-03-15T02:11:14.996Z,94240.09
2019-03-15T02:13:42.570Z,94228.34
2019-03-15T02:16:10.051Z,94242.52
2019-03-15T02:18:37.593Z,94237.45
2019-03-15T02:21:05.048Z,94240.20
2019-03-15T02:23:32.749Z,94233.92
2019-03-15T02:26:00.431Z,94238.06
2019-03-15T02:28:27.941Z,94235.54
2019-03-15T02:30:55.445Z,94257.75
2019-03-15T02:33:23.418Z,94248.00
2019-03-15T02:35:51.163Z,94246.72
2019-03-15T02:38:19.203Z,94249.98
2019-03-15T02:40:46.840Z,94262.59
2019-03-15T02:43:14.891Z,94254.10
2019-03-15T02:45:42.494Z,94250.93
2019-03-15T02:48:09.985Z,94260.95
2019-03-15T02:50:37.611Z,94272.68
2019-03-15T02:53:05.525Z,94263.84
2019-03-15T02:55:33.154Z,94268.80
2019-03-15T02:58:02.038Z,94271.20
2019-03-15T03:00:29.668Z,94277.56
2019-03-15T03:02:57.129Z,94272.89
2019-03-15T03:05:24.639Z,94273.56
2019-03-15T03:07:52.180Z,94282.05
2019-03-15T03:10:19.610Z,94286.25
2019-03-15T03:12:47.388Z,94280.72
2019-03-15T03:15:15.218Z,94285.23
2019-03-15T03:17:42.924Z,94278.70
2019-03-15T03:20:11.222Z,94152.75
2019-03-15T03:22:38.865Z,94282.45
2019-03-15T03:25:06.856Z,94277.37
2019-03-15T03:27:34.386Z,94276.20
2019-03-15T03:30:02.810Z,94276.61
2019-03-15T03:32:30.543Z,94275.33
2019-03-15T03:34:58.298Z,94277.94
2019-03-15T03:37:25.761Z,94275.52
2019-03-15T03:39:53.118Z,94284.63
2019-03-15T03:42:20.615Z,94283.19
2019-03-15T03:44:48.070Z,94288.52
2019-03-15T03:47:15.536Z,94290.63
2019-03-15T03:49:42.998Z,94292.36
2019-03-15T03:52:10.416Z,94290.30
2019-03-15T03:54:37.809Z,94293.48
2019-03-15T03:57:05.274Z,94293.88
2019-03-15T03:59:32.833Z,94296.02
2019-03-15T04:02:00.295Z,94296.05
2019-03-15T04:04:27.738Z,94296.34
2019-03-15T04:06:55.337Z,94295.77
2019-03-15T04:09:23.076Z,94295.47
2019-03-15T04:11:55.666Z,94292.45
2019-03-15T04:14:20.023Z,94296.02
2019-03-15T04:16:47.520Z,94288.20
2019-03-15T04:19:14.939Z,94292.53
2019-03-15T04:21:42.500Z,94307.60
2019-03-15T04:24:10.021Z,94304.80
2019-03-15T04:26:37.405Z,94307.11
2019-03-15T04:29:04.891Z,94312.06
2019-03-15T04:31:32.486Z,94319.12
2019-03-15T04:34:00.114Z,94313.81
2019-03-15T04:36:27.611Z,94321.09
2019-03-15T04:38:55.067Z,94319.34
2019-03-15T04:41:22.523Z,94302.63
2019-03-15T04:43:49.958Z,94315.80
2019-03-15T04:46:17.468Z,94301.68
2019-03-15T04:48:44.923Z,94316.73
2019-03-15T04:51:12.577Z,94307.98
2019-03-15T04:53:40.343Z,94315.27
2019-03-15T04:56:07.840Z,94317.67
2019-03-15T04:58:35.232Z,94321.95
2019-03-15T05:01:02.916Z,94326.81
2019-03-15T05:03:30.612Z,94322.20
2019-03-15T05:06:03.614Z,94334.53
2019-03-15T05:08:28.304Z,94332.01
2019-03-15T05:10:55.964Z,94337.11
2019-03-15T05:13:23.636Z,94340.81
2019-03-15T05:15:51.063Z,94339.52
2019-03-15T05:18:18.564Z,94346.39
2019-03-15T05:20:46.034Z,94340.03
2019-03-15T05:23:13.897Z,94354.21
2019-03-15T05:25:41.416Z,94349.17
2019-03-15T05:28:08.957Z,94351.53
2019-03-15T05:30:36.378Z,94354.16
2019-03-15T05:33:04.366Z,94361.41
2019-03-15T05:35:31.823Z,94360.90
2019-03-15T05:37:59.239Z,94361.56
2019-03-15T05:40:26.721Z,94359.05
2019-03-15T05:42:54.129Z,94362.11
2019-03-15T05:45:21.600Z,94365.09
2019-03-15T05:47:49.123Z,94376.98
2019-03-15T05:50:16.509Z,94369.79
2019-03-15T05:52:43.966Z,94379.89
2019-03-15T05:55:11.557Z,94379.64
2019-03-15T05:57:39.026Z,94369.43
2019-03-15T06:00:08.255Z,94371.20
2019-03-15T06:02:35.714Z,94378.12
2019-03-15T06:05:03.343Z,94383.83
2019-03-15T06:07:30.844Z,94370.60
2019-03-15T06:09:58.273Z,94381.79
2019-03-15T06:12:25.734Z,94387.44
2019-03-15T06:14:53.164Z,94385.36
2019-03-15T06:17:20.555Z,94385.13
2019-03-15T06:19:47.997Z,94389.19
2019-03-15T06:22:15.448Z,94395.94
2019-03-15T06:24:42.994Z,94386.86
2019-03-15T06:27:10.512Z,94398.56
2019-03-15T06:29:38.023Z,94399.92
2019-03-15T06:32:05.563Z,94393.16
2019-03-15T06:34:33.492Z,94390.94
2019-03-15T06:37:01.010Z,94399.99
2019-03-15T06:39:28.451Z,94401.53
2019-03-15T06:41:55.898Z,94402.64
2019-03-15T06:44:23.336Z,94403.49
2019-03-15T06:46:50.734Z,94405.68
2019-03-15T06:49:18.168Z,94403.41
2019-03-15T06:51:45.653Z,94416.19
2019-03-15T06:54:13.081Z,94414.50
2019-03-15T06:56:40.678Z,94414.23
2019-03-15T06:59:08.187Z,94423.19
2019-03-15T07:01:35.635Z,94419.56
2019-03-15T07:04:03.194Z,94427.64
2019-03-15T07:06:30.552Z,94424.28
2019-03-15T07:08:58.939Z,94420.72
2019-03-15T07:11:26.407Z,94424.33
2019-03-15T07:13:53.854Z,94421.20
2019-03-15T07:16:21.348Z,94427.16
2019-03-15T07:18:48.844Z,94423.97
2019-03-15T07:21:16.226Z,94421.34
2019-03-15T07:23:43.712Z,94420.01
2019-03-15T07:26:11.311Z,94425.23
2019-03-15T07:28:38.815Z,94425.48
2019-03-15T07:31:06.250Z,94424.41
2019-03-15T07:33:34.108Z,94427.08
2019-03-15T07:36:01.619Z,94424.98
2019-03-15T07:38:29.094Z,94422.62
2019-03-15T07:40:56.553Z,94421.53
2019-03-15T07:43:24.019Z,94414.73
2019-03-15T07:45:51.556Z,94410.23
2019-03-15T07:48:22.794Z,94412.16
2019-03-15T07:50:48.403Z,94404.75
2019-03-15T07:53:15.910Z,94406.00
2019-03-15T07:55:43.346Z,94414.12
2019-03-15T07:58:11.419Z,94408.20
2019-03-15T08:00:39.002Z,94414.50
2019-03-15T08:03:06.702Z,94410.70
2019-03-15T08:05:34.193Z,94416.27
2019-03-15T08:08:01.653Z,94420.81
2019-03-15T08:10:29.098Z,94426.19
2019-03-15T08:12:56.574Z,94424.44
2019-03-15T08:15:24.000Z,94431.59
2019-03-15T08:17:51.463Z,94431.99
2019-03-15T08:20:18.919Z,94426.80
2019-03-15T08:22:46.287Z,94439.55
2019-03-15T08:25:13.753Z,94426.45
2019-03-15T08:27:41.639Z,94439.70
2019-03-15T08:30:10.768Z,94435.14
2019-03-15T08:32:38.237Z,94440.96
2019-03-15T08:35:06.690Z,94441.31
2019-03-15T08:37:34.141Z,94438.63
2019-03-15T08:40:01.608Z,94434.14
2019-03-15T08:42:29.134Z,94443.11
2019-03-15T08:44:56.528Z,94444.65
2019-03-15T08:47:23.963Z,94439.22
2019-03-15T08:49:51.390Z,94431.81
2019-03-15T08:52:18.877Z,94424.50
2019-03-15T08:54:46.788Z,94432.73
2019-03-15T08:57:14.339Z,94432.69
2019-03-15T08:59:53.893Z,94424.36
2019-03-15T09:02:11.083Z,94422.34
2019-03-15T09:04:38.519Z,94424.15
2019-03-15T09:07:06.117Z,94422.46
2019-03-15T09:09:35.958Z,94427.25
2019-03-15T09:12:03.032Z,94434.45
2019-03-15T09:14:30.512Z,94433.41
2019-03-15T09:16:59.534Z,94434.44
2019-03-15T09:19:27.633Z,94428.28
2019-03-15T09:21:55.136Z,94433.28
2019-03-15T09:24:22.529Z,94429.52
2019-03-15T09:26:50.014Z,94428.02
2019-03-15T09:29:17.608Z,94426.68
2019-03-15T09:31:47.989Z,94424.13
2019-03-15T09:34:15.018Z,94421.87
2019-03-15T09:36:50.068Z,94422.95
2019-03-15T09:39:11.852Z,94423.23
2019-03-15T09:41:40.281Z,94414.27
2019-03-15T09:44:07.880Z,94416.94
2019-03-15T09:46:35.273Z,94417.09
2019-03-15T09:49:02.840Z,94419.77
2019-03-15T09:51:30.270Z,94424.87
2019-03-15T09:53:57.645Z,94423.09
2019-03-15T09:56:27.737Z,94429.04
2019-03-15T09:58:54.462Z,94423.25
2019-03-15T10:01:34.403Z,94419.05
2019-03-15T10:03:51.226Z,94419.92
2019-03-15T10:06:19.667Z,94423.97
2019-03-15T10:08:47.373Z,94414.98
2019-03-15T10:11:14.772Z,94407.81
2019-03-15T10:13:42.265Z,94414.05
2019-03-15T10:16:09.708Z,94406.22
2019-03-15T10:18:37.239Z,94407.78
2019-03-15T10:21:04.720Z,94405.23
2019-03-15T10:23:32.240Z,94413.83
2019-03-15T10:25:59.805Z,94414.59
2019-03-15T10:28:27.991Z,94407.60
2019-03-15T10:30:56.117Z,94411.89
2019-03-15T10:33:23.536Z,94392.89
2019-03-15T10:35:51.008Z,94403.09
2019-03-15T10:38:18.381Z,94394.16
2019-03-15T10:40:45.941Z,94404.30
2019-03-15T10:43:13.433Z,94401.60
2019-03-15T10:45:40.835Z,94392.69
2019-03-15T10:48:08.387Z,94391.25
2019-03-15T10:50:35.854Z,94389.41
2019-03-15T10:53:03.339Z,94384.56
2019-03-15T10:55:30.804Z,94388.06
2019-03-15T10:57:58.270Z,94389.92
2019-03-15T11:00:25.771Z,94374.63
2019-03-15T11:02:53.307Z,94374.25
2019-03-15T11:05:20.814Z,94378.08
2019-03-15T11:07:48.308Z,94384.44
2019-03-15T11:10:15.811Z,94381.92
2019-03-15T11:12:43.361Z,94371.76
2019-03-15T11:15:10.801Z,94370.93
2019-03-15T11:17:38.183Z,94358.98
2019-03-15T11:20:06.116Z,94364.26
2019-03-15T11:22:42.049Z,94360.06
2019-03-15T11:25:12.589Z,94356.82
2019-03-15T11:27:40.051Z,94361.06
2019-03-15T11:30:07.565Z,94351.52
2019-03-15T11:32:35.153Z,94355.77
2019-03-15T11:35:02.936Z,94354.49
2019-03-15T11:37:30.379Z,94354.02
2019-03-15T11:39:57.872Z,94353.82
2019-03-15T11:42:25.436Z,94344.19
2019-03-15T11:44:53.007Z,94341.06
2019-03-15T11:47:20.488Z,94347.33
2019-03-15T11:49:48.060Z,94344.59
2019-03-15T11:52:15.589Z,94342.54
2019-03-15T11:54:43.095Z,94342.28
2019-03-15T11:57:10.630Z,94323.72
2019-03-15T11:59:38.082Z,94325.59
2019-03-15T12:02:05.600Z,94332.95
2019-03-15T12:04:33.062Z,94334.80
2019-03-15T12:07:00.567Z,94329.80
2019-03-15T12:09:27.955Z,94319.29
2019-03-15T12:11:55.527Z,94325.07
2019-03-15T12:14:22.998Z,94325.13
2019-03-15T12:16:50.465Z,94324.01
2019-03-15T12:19:17.902Z,94314.69
2019-03-15T12:21:45.420Z,94324.48
2019-03-15T12:24:12.868Z,94318.24
2019-03-15T12:26:40.870Z,94307.18
2019-03-15T12:29:08.596Z,94318.03
2019-03-15T12:31:35.975Z,94315.98
2019-03-15T12:34:03.635Z,94314.14
2019-03-15T12:36:31.155Z,94304.44
2019-03-15T12:38:58.662Z,94309.47
2019-03-15T12:41:26.100Z,94303.80
2019-03-15T12:43:53.530Z,94304.37
2019-03-15T12:46:21.072Z,94305.14
2019-03-15T12:48:48.637Z,94304.13
2019-03-15T12:51:16.328Z,94298.72
2019-03-15T12:53:43.780Z,94303.50
2019-03-15T12:56:11.439Z,94305.39
2019-03-15T12:58:38.829Z,94305.94
2019-03-15T13:01:06.294Z,94306.33
2019-03-15T13:03:33.893Z,94313.00
2019-03-15T13:06:01.511Z,94305.37
2019-03-15T13:08:28.991Z,94313.09
2019-03-15T13:10:56.418Z,94312.33
2019-03-15T13:13:26.544Z,94308.50
2019-03-15T13:15:54.139Z,94306.84
2019-03-15T13:18:21.622Z,94307.57
2019-03-15T13:20:49.080Z,94309.62
2019-03-15T13:23:16.510Z,94308.60
2019-03-15T13:25:43.966Z,94311.11
2019-03-15T13:28:11.411Z,94305.76
2019-03-15T13:30:39.647Z,94311.80
2019-03-15T13:33:19.690Z,94317.16
2019-03-15T13:35:36.741Z,94317.50
2019-03-15T13:38:04.180Z,94315.83
2019-03-15T13:40:31.801Z,94323.30
2019-03-15T13:42:59.303Z,94319.91
2019-03-15T13:45:26.850Z,94318.11
2019-03-15T13:47:54.334Z,94320.98
2019-03-15T13:50:21.809Z,94321.74
2019-03-15T13:52:49.298Z,94313.88
2019-03-15T13:55:16.830Z,94316.53
2019-03-15T13:57:44.342Z,94320.05
2019-03-15T14:00:13.233Z,94315.14
2019-03-15T14:02:40.676Z,94320.47
2019-03-15T14:05:08.248Z,94335.79
2019-03-15T14:07:35.712Z,94319.45
2019-03-15T14:10:04.205Z,94330.23
2019-03-15T14:12:31.829Z,94337.89
2019-03-15T14:14:59.292Z,94339.16
2019-03-15T14:17:26.728Z,94333.56
2019-03-15T14:19:54.487Z,94327.56
2019-03-15T14:22:22.182Z,94334.30
2019-03-15T14:24:49.568Z,94325.58
2019-03-15T14:27:17.070Z,94337.64
2019-03-15T14:29:44.514Z,94329.35
2019-03-15T14:32:12.029Z,94336.30
2019-03-15T14:34:39.494Z,94341.49
2019-03-15T14:37:10.227Z,94340.05
2019-03-15T14:39:36.661Z,94343.30
2019-03-15T14:42:04.423Z,94350.86
2019-03-15T14:44:32.181Z,94345.74
2019-03-15T14:46:59.647Z,94346.05
2019-03-15T14:49:27.174Z,94348.73
2019-03-15T14:51:54.649Z,94360.34
2019-03-15T14:54:22.153Z,94367.29
2019-03-15T14:56:49.527Z,94368.25
2019-03-15T14:59:16.962Z,94367.42
2019-03-15T15:01:44.632Z,94371.64
2019-03-15T15:04:12.180Z,94367.27
2019-03-15T15:06:39.647Z,94368.69
2019-03-15T15:09:07.130Z,94371.44
2019-03-15T15:11:34.748Z,94374.85
2019-03-15T15:14:02.394Z,94373.23
2019-03-15T15:16:29.855Z,94376.70
2019-03-15T15:18:57.420Z,94364.95
2019-03-15T15:21:25.045Z,94374.59
2019-03-15T15:23:52.527Z,94378.33
2019-03-15T15:26:20.047Z,94391.56
2019-03-15T15:28:47.632Z,94391.37
2019-03-15T15:31:15.237Z,94389.13
2019-03-15T15:33:42.910Z,94386.23
2019-03-15T15:36:10.592Z,94396.27
2019-03-15T15:38:38.248Z,94391.58
2019-03-15T15:41:05.744Z,94400.46
2019-03-15T15:43:33.344Z,94405.67
2019-03-15T15:46:00.954Z,94409.97
2019-03-15T15:48:28.885Z,94415.52
2019-03-15T15:50:56.551Z,94408.81
2019-03-15T15:53:24.039Z,94408.58
2019-03-15T15:55:51.465Z,94411.25
2019-03-15T15:58:19.089Z,94415.94
2019-03-15T16:00:47.243Z,94411.66
2019-03-15T16:03:14.796Z,94421.02
2019-03-15T16:05:42.199Z,94426.84
2019-03-15T16:08:09.719Z,94432.25
2019-03-15T16:10:37.328Z,94424.53
2019-03-15T16:13:16.674Z,94433.38
2019-03-15T16:15:34.661Z,94444.10
2019-03-15T16:18:02.239Z,94453.31
2019-03-15T16:20:29.717Z,94449.84
2019-03-15T16:22:57.769Z,94444.30
2019-03-15T16:25:25.403Z,94460.08
2019-03-15T16:27:56.614Z,94458.88
2019-03-15T16:30:24.330Z,94454.67
2019-03-15T16:32:52.141Z,94459.97
2019-03-15T16:35:20.560Z,94472.14
2019-03-15T16:37:48.368Z,94474.27
2019-03-15T16:40:16.051Z,94477.88
2019-03-15T16:42:43.581Z,94485.70
2019-03-15T16:45:15.263Z,94502.54
2019-03-15T16:47:42.254Z,94504.94
2019-03-15T16:50:11.304Z,94503.00
2019-03-15T16:52:38.767Z,94508.22
2019-03-15T16:55:07.684Z,94523.08
2019-03-15T16:57:35.319Z,94515.60
2019-03-15T17:00:04.942Z,94521.00
2019-03-15T17:02:32.456Z,94516.14
2019-03-15T17:05:00.629Z,94525.33
2019-03-15T17:07:28.060Z,94531.17
2019-03-15T17:09:56.081Z,94534.77
2019-03-15T17:12:23.623Z,94538.56
2019-03-15T17:14:51.198Z,94534.95
2019-03-15T17:17:18.664Z,94546.08
2019-03-15T17:19:46.175Z,94551.17
2019-03-15T17:22:13.604Z,94550.00
2019-03-15T17:24:41.153Z,94559.47
2019-03-15T17:27:08.633Z,94573.71
2019-03-15T17:29:36.176Z,94581.20
2019-03-15T17:32:03.988Z,94578.05
2019-03-15T17:34:31.636Z,94578.64
2019-03-15T17:37:06.599Z,94579.11
2019-03-15T17:39:28.810Z,94590.79
2019-03-15T17:41:56.225Z,94603.25
2019-03-15T17:44:23.814Z,94592.00
2019-03-15T17:46:51.387Z,94614.95
2019-03-15T17:49:18.832Z,94605.05
2019-03-15T17:51:46.391Z,94608.67
2019-03-15T17:54:13.888Z,94610.76
2019-03-15T17:56:41.390Z,94605.06
2019-03-15T17:59:12.685Z,94613.47
2019-03-15T18:01:38.199Z,94615.99
2019-03-15T18:04:06.018Z,94617.20
2019-03-15T18:06:33.915Z,94618.72
2019-03-15T18:09:01.320Z,94613.62
2019-03-15T18:11:28.831Z,94617.82
2019-03-15T18:13:56.537Z,94620.81
2019-03-15T18:16:24.008Z,94625.45
2019-03-15T18:18:51.562Z,94637.16
2019-03-15T18:21:19.070Z,94636.55
2019-03-15T18:23:46.808Z,94636.84
2019-03-15T18:26:14.390Z,94647.81
2019-03-15T18:28:41.862Z,94643.31
2019-03-15T18:31:09.343Z,94656.81
2019-03-15T18:33:36.800Z,94652.72
2019-03-15T18:36:04.480Z,94650.81
2019-03-15T18:38:32.164Z,94650.92
2019-03-15T18:40:59.775Z,94654.69
2019-03-15T18:43:27.284Z,94651.39
2019-03-15T18:45:55.142Z,94659.20
2019-03-15T18:48:24.276Z,94651.66
2019-03-15T18:50:51.888Z,94664.72
2019-03-15T18:53:19.431Z,94664.84
2019-03-15T18:55:46.870Z,94669.64
2019-03-15T18:58:15.047Z,94678.33
2019-03-15T19:00:42.686Z,94663.94
2019-03-15T19:03:10.066Z,94664.52
2019-03-15T19:05:38.132Z,94678.16
2019-03-15T19:08:06.748Z,94673.86
2019-03-15T19:10:34.177Z,94680.05
2019-03-15T19:13:01.631Z,94681.41
2019-03-15T19:15:29.840Z,94682.22
2019-03-15T19:17:57.490Z,94674.84
2019-03-15T19:20:24.868Z,94686.41
2019-03-15T19:22:52.567Z,94687.87
2019-03-15T19:25:20.070Z,94692.32
2019-03-15T19:27:47.733Z,94692.02
2019-03-15T19:30:15.294Z,94695.90
2019-03-15T19:32:43.221Z,94693.92
2019-03-15T19:35:11.164Z,94685.97
2019-03-15T19:37:38.810Z,94691.62
2019-03-15T19:40:08.220Z,94688.47
2019-03-15T19:42:35.760Z,94696.09
2019-03-15T19:45:03.986Z,94706.34
2019-03-15T19:47:32.168Z,94698.38
2019-03-15T19:49:59.713Z,94705.53
2019-03-15T19:52:27.376Z,94702.98
2019-03-15T19:55:00.440Z,94708.82
2019-03-15T19:57:24.168Z,94714.23
2019-03-15T19:59:52.543Z,94719.61
2019-03-15T20:02:20.402Z,94732.77
2019-03-15T20:04:49.654Z,94733.83
2019-03-15T20:07:17.099Z,94733.51
2019-03-15T20:09:44.654Z,94732.77
2019-03-15T20:12:12.149Z,94738.52
2019-03-15T20:14:40.451Z,94735.34
2019-03-15T20:17:07.950Z,94739.84
2019-03-15T20:19:35.450Z,94739.37
2019-03-15T20:22:02.944Z,94742.97
2019-03-15T20:24:32.285Z,94740.11
2019-03-15T20:26:59.848Z,94737.16
2019-03-15T20:29:27.575Z,94744.50
2019-03-15T20:31:55.111Z,94743.34
2019-03-15T20:34:22.663Z,94743.37
2019-03-15T20:36:50.892Z,94742.48
2019-03-15T20:39:18.500Z,94734.77
2019-03-15T20:41:46.115Z,94740.47
2019-03-15T20:44:27.506Z,94737.02
2019-03-15T20:46:42.853Z,94737.02
2019-03-15T20:49:10.370Z,94732.80
2019-03-15T20:51:37.817Z,94732.02
2019-03-15T20:54:05.958Z,94728.05
2019-03-15T20:56:34.261Z,94733.92
2019-03-15T20:59:01.918Z,94731.48
2019-03-15T21:01:29.326Z,94732.88
2019-03-15T21:03:56.782Z,94735.83
2019-03-15T21:06:25.313Z,94734.11
2019-03-15T21:08:52.861Z,94734.04
2019-03-15T21:11:20.380Z,94731.27
2019-03-15T21:13:47.902Z,94726.16
2019-03-15T21:16:18.154Z,94721.59
2019-03-15T21:18:44.761Z,94721.84
2019-03-15T21:21:12.266Z,94728.42
2019-03-15T21:23:39.673Z,94727.03
2019-03-15T21:26:07.123Z,94731.28
2019-03-15T21:28:34.690Z,94736.45
2019-03-15T21:31:02.167Z,94734.06
2019-03-15T21:33:29.618Z,94734.53
2019-03-15T21:35:57.156Z,94733.43
2019-03-15T21:38:24.836Z,94741.97
2019-03-15T21:40:52.463Z,94740.16
2019-03-15T21:43:20.079Z,94742.74
2019-03-15T21:45:47.566Z,94739.97
2019-03-15T21:48:15.009Z,94735.77
2019-03-15T21:50:42.592Z,94746.75
2019-03-15T21:53:10.135Z,94755.98
2019-03-15T21:55:37.675Z,94749.98
2019-03-15T21:58:05.171Z,94750.14
2019-03-15T22:00:32.560Z,94752.02
2019-03-15T22:03:00.029Z,94745.48
2019-03-15T22:05:27.539Z,94754.29
2019-03-15T22:07:54.991Z,94754.20
2019-03-15T22:10:22.485Z,94750.50
2019-03-15T22:12:50.034Z,94756.84
2019-03-15T22:15:17.501Z,94758.50
2019-03-15T22:17:44.964Z,94759.02
2019-03-15T22:20:12.637Z,94771.44
2019-03-15T22:22:40.070Z,94772.80
2019-03-15T22:25:07.735Z,94780.20
2019-03-15T22:27:35.357Z,94772.80
2019-03-15T22:30:03.487Z,94772.55
2019-03-15T22:32:30.945Z,94769.11
2019-03-15T22:34:58.430Z,94757.20
2019-03-15T22:37:25.946Z,94759.05
2019-03-15T22:39:53.399Z,94763.73
2019-03-15T22:42:20.916Z,94764.89
2019-03-15T22:44:48.495Z,94767.05
2019-03-15T22:47:16.120Z,94757.20
2019-03-15T22:49:43.652Z,94764.97
2019-03-15T22:52:11.063Z,94761.89
2019-03-15T22:54:38.607Z,94765.27
2019-03-15T22:57:06.216Z,94764.44
2019-03-15T22:59:33.763Z,94764.44
2019-03-15T23:02:02.619Z,94750.91
2019-03-15T23:04:30.082Z,94751.48
2019-03-15T23:06:57.967Z,94745.66
2019-03-15T23:09:25.465Z,94751.73
2019-03-15T23:11:53.145Z,94754.10
2019-03-15T23:14:20.647Z,94748.80
2019-03-15T23:16:48.125Z,94750.88
2019-03-15T23:19:15.584Z,94758.64
2019-03-15T23:21:44.125Z,94746.62
2019-03-15T23:24:11.653Z,94755.61
2019-03-15T23:26:39.170Z,94752.36
2019-03-15T23:29:06.708Z,94756.42
2019-03-15T23:31:43.566Z,94757.19
2019-03-15T23:34:03.736Z,94761.86
2019-03-15T23:36:31.229Z,94755.63
2019-03-15T23:38:58.719Z,94756.78
2019-03-15T23:41:26.273Z,94754.79
2019-03-15T23:43:53.942Z,94744.55
2019-03-15T23:46:21.509Z,94746.41
2019-03-15T23:48:48.971Z,94738.38
2019-03-15T23:51:16.449Z,94734.58
2019-03-15T23:53:43.946Z,94734.27
2019-03-15T23:56:11.474Z,94730.48
2019-03-15T23:58:39.019Z,94731.38
